createdAt,value
2017-10-09T00:01:36.103Z,2.87
2017-10-09T00:04:03.760Z,6.97
2017-10-09T00:06:31.403Z,3.03
2017-10-09T00:08:59.031Z,4.90
2017-10-09T00:11:26.634Z,4.33
2017-10-09T00:13:54.347Z,2.20
2017-10-09T00:16:22.068Z,2.90
2017-10-09T00:18:49.775Z,2.37
2017-10-09T00:21:17.423Z,2.20
2017-10-09T00:23:45.079Z,4.00
2017-10-09T00:26:12.799Z,3.10
2017-10-09T00:28:40.579Z,4.87
2017-10-09T00:31:08.240Z,2.37
2017-10-09T00:33:35.896Z,4.07
2017-10-09T00:36:03.603Z,3.30
2017-10-09T00:38:31.199Z,2.77
2017-10-09T00:40:58.808Z,2.00
2017-10-09T00:43:26.519Z,5.93
2017-10-09T00:45:54.127Z,2.60
2017-10-09T00:48:21.792Z,9.27
2017-10-09T00:50:49.444Z,2.70
2017-10-09T00:53:17.044Z,2.27
2017-10-09T00:55:44.664Z,4.20
2017-10-09T00:58:12.371Z,8.60
2017-10-09T01:00:40.027Z,3.20
2017-10-09T01:03:07.627Z,6.60
2017-10-09T01:05:35.276Z,4.20
2017-10-09T01:08:02.895Z,1.40
2017-10-09T01:10:30.569Z,3.00
2017-10-09T01:12:58.237Z,4.63
2017-10-09T01:15:25.904Z,3.97
2017-10-09T01:17:53.575Z,2.83
2017-10-09T01:20:21.231Z,3.33
2017-10-09T01:22:48.834Z,3.20
2017-10-09T01:25:16.442Z,3.57
2017-10-09T01:27:44.091Z,2.67
2017-10-09T01:30:11.692Z,4.03
2017-10-09T01:32:39.299Z,2.67
2017-10-09T01:35:06.958Z,2.07
2017-10-09T01:37:34.567Z,4.60
2017-10-09T01:40:02.180Z,2.27
2017-10-09T01:42:29.822Z,2.77
2017-10-09T01:44:57.415Z,1.73
2017-10-09T01:47:25.019Z,2.07
2017-10-09T01:49:52.671Z,2.67
2017-10-09T01:52:20.275Z,7.30
2017-10-09T01:54:47.874Z,2.47
2017-10-09T01:57:15.530Z,4.90
2017-10-09T01:59:43.187Z,2.70
2017-10-09T02:02:10.785Z,3.60
2017-10-09T02:04:38.460Z,2.70
2017-10-09T02:07:06.055Z,3.90
2017-10-09T02:09:33.670Z,1.30
2017-10-09T02:12:01.326Z,1.90
2017-10-09T02:14:28.944Z,4.40
2017-10-09T02:16:56.554Z,2.80
2017-10-09T02:19:24.251Z,6.10
2017-10-09T02:21:51.866Z,3.47
2017-10-09T02:24:19.539Z,2.20
2017-10-09T02:26:47.250Z,2.50
2017-10-09T02:29:14.915Z,3.50
2017-10-09T02:31:42.516Z,7.20
2017-10-09T02:34:10.232Z,2.80
2017-10-09T02:36:37.831Z,9.00
2017-10-09T02:39:05.504Z,12.73
2017-10-09T02:41:33.235Z,3.10
2017-10-09T02:44:00.835Z,4.50
2017-10-09T02:46:28.436Z,2.03
2017-10-09T02:48:56.103Z,8.30
2017-10-09T02:51:23.718Z,2.37
2017-10-09T02:53:51.315Z,16.17
2017-10-09T02:56:18.956Z,2.33
2017-10-09T02:58:46.567Z,3.37
2017-10-09T03:01:14.161Z,1.93
2017-10-09T03:03:41.823Z,2.23
2017-10-09T03:06:09.431Z,2.87
2017-10-09T03:08:37.095Z,3.33
2017-10-09T03:11:04.743Z,2.83
2017-10-09T03:13:32.343Z,2.37
2017-10-09T03:15:59.994Z,3.80
2017-10-09T03:18:27.635Z,2.40
2017-10-09T03:20:55.291Z,4.40
2017-10-09T03:26:29.099Z,1.43
2017-10-09T03:29:00.403Z,2.37
2017-10-09T03:31:28.055Z,2.03
2017-10-09T03:33:55.706Z,10.90
2017-10-09T03:36:23.472Z,2.87
2017-10-09T03:38:51.130Z,6.43
2017-10-09T03:41:18.791Z,2.13
2017-10-09T03:43:46.490Z,5.07
2017-10-09T03:46:14.148Z,11.73
2017-10-09T03:48:41.854Z,9.37
2017-10-09T03:51:09.563Z,4.60
2017-10-09T03:53:37.211Z,8.70
2017-10-09T03:56:04.874Z,1.90
2017-10-09T03:58:32.580Z,6.77
2017-10-09T04:01:00.242Z,18.50
2017-10-09T04:03:27.852Z,22.53
2017-10-09T04:05:55.577Z,8.43
2017-10-09T04:08:23.240Z,11.70
2017-10-09T04:10:50.848Z,17.27
2017-10-09T04:13:18.531Z,12.67
2017-10-09T04:15:46.147Z,10.87
2017-10-09T04:18:13.759Z,32.97
2017-10-09T04:20:41.455Z,9.77
2017-10-09T04:23:09.115Z,44.60
2017-10-09T04:25:36.717Z,9.47
2017-10-09T04:28:04.461Z,12.43
2017-10-09T04:30:32.063Z,7.53
2017-10-09T04:33:00.357Z,13.93
2017-10-09T04:35:28.062Z,5.73
2017-10-09T04:37:55.687Z,10.30
2017-10-09T04:40:23.373Z,17.70
2017-10-09T04:42:51.041Z,12.53
2017-10-09T04:45:18.646Z,18.57
2017-10-09T04:47:46.303Z,7.27
2017-10-09T04:50:13.943Z,12.77
2017-10-09T04:52:41.664Z,5.63
2017-10-09T04:55:09.313Z,7.27
2017-10-09T04:57:36.983Z,11.23
2017-10-09T05:00:04.579Z,10.93
2017-10-09T05:02:32.231Z,2.80
2017-10-09T05:04:59.880Z,17.90
2017-10-09T05:07:27.544Z,7.23
2017-10-09T05:09:55.138Z,3.90
2017-10-09T05:12:22.873Z,10.03
2017-10-09T05:14:50.556Z,12.40
2017-10-09T05:17:18.287Z,15.30
2017-10-09T05:19:45.984Z,3.80
2017-10-09T05:22:13.646Z,6.93
2017-10-09T05:24:41.243Z,3.43
2017-10-09T05:27:08.970Z,13.13
2017-10-09T05:29:36.646Z,4.90
2017-10-09T05:32:04.303Z,7.87
2017-10-09T05:34:31.959Z,9.00
2017-10-09T05:36:59.550Z,7.63
2017-10-09T05:39:27.144Z,7.70
2017-10-09T05:41:54.842Z,8.10
2017-10-09T05:44:22.495Z,9.60
2017-10-09T05:46:50.106Z,10.80
2017-10-09T05:49:17.755Z,19.13
2017-10-09T05:51:45.360Z,12.70
2017-10-09T05:54:12.954Z,5.20
2017-10-09T05:56:40.671Z,6.33
2017-10-09T05:59:08.275Z,11.70
2017-10-09T06:01:35.902Z,3.90
2017-10-09T06:04:03.634Z,4.37
2017-10-09T06:06:31.301Z,4.47
2017-10-09T06:08:58.917Z,3.50
2017-10-09T06:11:26.555Z,5.83
2017-10-09T06:13:54.225Z,2.90
2017-10-09T06:16:21.890Z,5.23
2017-10-09T06:18:49.592Z,3.93
2017-10-09T06:21:17.191Z,4.83
2017-10-09T06:23:44.784Z,3.47
2017-10-09T06:26:12.443Z,6.00
2017-10-09T06:28:40.095Z,19.93
2017-10-09T06:31:07.698Z,6.93
2017-10-09T06:33:35.384Z,3.13
2017-10-09T06:36:02.984Z,4.03
2017-10-09T06:38:30.659Z,6.93
2017-10-09T06:40:58.400Z,10.60
2017-10-09T06:43:26.006Z,8.70
2017-10-09T06:45:53.687Z,8.50
2017-10-09T06:48:21.342Z,3.90
2017-10-09T06:50:48.979Z,2.97
2017-10-09T06:53:16.650Z,2.87
2017-10-09T06:55:44.383Z,2.13
2017-10-09T06:58:11.978Z,7.03
2017-10-09T07:00:39.705Z,8.50
2017-10-09T07:03:07.391Z,2.23
2017-10-09T07:05:35.056Z,6.40
2017-10-09T07:08:02.688Z,3.57
2017-10-09T07:10:30.352Z,5.17
2017-10-09T07:12:58.025Z,10.10
2017-10-09T07:15:25.662Z,5.00
2017-10-09T07:17:53.533Z,4.37
2017-10-09T07:20:21.135Z,8.63
2017-10-09T07:22:48.749Z,4.80
2017-10-09T07:25:16.515Z,1.93
2017-10-09T07:27:44.175Z,4.10
2017-10-09T07:30:11.836Z,5.10
2017-10-09T07:32:39.539Z,6.83
2017-10-09T07:35:07.145Z,5.77
2017-10-09T07:37:34.768Z,12.43
2017-10-09T07:40:02.423Z,3.43
2017-10-09T07:42:30.040Z,6.53
2017-10-09T07:44:57.643Z,6.10
2017-10-09T07:47:25.351Z,2.73
2017-10-09T07:49:53.023Z,21.67
2017-10-09T07:52:20.627Z,2.83
2017-10-09T07:54:48.283Z,7.00
2017-10-09T07:57:18.853Z,3.23
2017-10-09T07:59:46.471Z,11.87
2017-10-09T08:02:14.129Z,2.70
2017-10-09T08:04:41.739Z,3.37
2017-10-09T08:07:09.352Z,6.37
2017-10-09T08:09:37.063Z,4.03
2017-10-09T08:12:04.727Z,6.97
2017-10-09T08:14:32.405Z,3.90
2017-10-09T08:17:00.060Z,4.70
2017-10-09T08:19:27.662Z,3.33
2017-10-09T08:21:55.269Z,3.57
2017-10-09T08:24:23.004Z,3.33
2017-10-09T08:26:50.606Z,5.60
2017-10-09T08:29:18.274Z,5.53
2017-10-09T08:31:46.015Z,5.13
2017-10-09T08:34:13.675Z,5.03
2017-10-09T08:36:41.347Z,3.00
2017-10-09T08:39:09.008Z,12.43
2017-10-09T08:41:36.615Z,8.40
2017-10-09T08:44:04.242Z,7.70
2017-10-09T08:46:31.890Z,9.83
2017-10-09T08:48:59.506Z,1.83
2017-10-09T08:51:27.158Z,3.03
2017-10-09T08:53:54.867Z,7.13
2017-10-09T08:56:22.524Z,7.23
2017-10-09T08:58:50.130Z,3.90
2017-10-09T09:01:17.779Z,3.60
2017-10-09T09:03:45.447Z,2.90
2017-10-09T09:06:13.172Z,2.63
2017-10-09T09:08:40.830Z,6.60
2017-10-09T09:11:08.441Z,5.80
2017-10-09T09:13:36.050Z,4.47
2017-10-09T09:16:03.764Z,3.97
2017-10-09T09:18:31.426Z,2.57
2017-10-09T09:20:59.101Z,4.63
2017-10-09T09:23:26.808Z,13.53
2017-10-09T09:25:54.472Z,2.80
2017-10-09T09:28:22.083Z,4.13
2017-10-09T09:30:49.752Z,7.03
2017-10-09T09:33:17.350Z,2.23
2017-10-09T09:35:45.012Z,11.80
2017-10-09T09:38:12.741Z,2.30
2017-10-09T09:40:40.399Z,9.17
2017-10-09T09:43:08.055Z,2.30
2017-10-09T09:45:35.724Z,2.83
2017-10-09T09:48:03.448Z,7.67
2017-10-09T09:50:31.106Z,20.27
2017-10-09T09:52:58.754Z,3.53
2017-10-09T09:55:26.367Z,16.67
2017-10-09T09:57:53.973Z,7.07
2017-10-09T10:00:21.618Z,2.40
2017-10-09T10:02:49.222Z,4.80
2017-10-09T10:05:16.896Z,4.20
2017-10-09T10:07:44.562Z,1.57
2017-10-09T10:10:12.236Z,12.13
2017-10-09T10:12:39.838Z,6.67
2017-10-09T10:15:07.503Z,5.07
2017-10-09T10:17:35.112Z,6.53
2017-10-09T10:20:02.725Z,2.20
2017-10-09T10:22:30.363Z,4.70
2017-10-09T10:24:57.964Z,2.30
2017-10-09T10:27:25.576Z,8.33
2017-10-09T10:29:53.256Z,9.00
2017-10-09T10:32:20.871Z,2.80
2017-10-09T10:34:48.480Z,2.10
2017-10-09T10:37:16.144Z,2.87
2017-10-09T10:39:43.754Z,3.60
2017-10-09T10:42:11.367Z,2.80
2017-10-09T10:44:39.132Z,3.87
2017-10-09T10:47:06.797Z,4.83
2017-10-09T10:49:34.409Z,8.03
2017-10-09T10:52:02.071Z,1.67
2017-10-09T10:54:29.735Z,2.53
2017-10-09T10:56:57.391Z,9.23
2017-10-09T10:59:25.043Z,2.37
2017-10-09T11:01:52.647Z,9.00
2017-10-09T11:04:20.323Z,6.17
2017-10-09T11:06:47.983Z,4.03
2017-10-09T11:09:15.583Z,3.77
2017-10-09T11:11:43.187Z,3.20
2017-10-09T11:14:10.827Z,4.43
2017-10-09T11:16:38.430Z,3.37
2017-10-09T11:19:06.055Z,3.77
2017-10-09T11:21:33.832Z,4.63
2017-10-09T11:24:01.442Z,2.83
2017-10-09T11:29:03.070Z,2.00
2017-10-09T11:31:30.739Z,4.43
2017-10-09T11:33:58.339Z,14.87
2017-10-09T11:36:26.034Z,6.73
2017-10-09T11:38:53.652Z,2.30
2017-10-09T11:41:21.251Z,8.93
2017-10-09T11:43:48.906Z,11.93
2017-10-09T11:46:16.512Z,4.67
2017-10-09T11:48:44.179Z,4.57
2017-10-09T11:51:11.820Z,2.37
2017-10-09T11:53:39.491Z,4.50
2017-10-09T11:56:07.096Z,8.30
2017-10-09T11:58:34.753Z,2.37
2017-10-09T12:01:02.359Z,6.17
2017-10-09T12:03:29.973Z,2.80
2017-10-09T12:05:57.695Z,5.10
2017-10-09T12:08:25.305Z,6.23
2017-10-09T12:10:52.911Z,5.93
2017-10-09T12:13:20.550Z,8.63
2017-10-09T12:15:48.155Z,5.07
2017-10-09T12:18:16.423Z,5.73
2017-10-09T12:20:44.079Z,10.60
2017-10-09T12:23:11.742Z,4.73
2017-10-09T12:25:39.398Z,1.90
2017-10-09T12:28:07.154Z,3.10
2017-10-09T12:30:34.812Z,4.63
2017-10-09T12:33:02.428Z,8.63
2017-10-09T12:35:30.085Z,31.23
2017-10-09T12:37:57.691Z,10.93
2017-10-09T12:40:25.359Z,10.17
2017-10-09T12:42:53.030Z,2.80
2017-10-09T12:45:20.716Z,5.70
2017-10-09T12:47:48.323Z,2.47
2017-10-09T12:50:15.987Z,25.23
2017-10-09T12:52:43.594Z,3.23
2017-10-09T12:55:11.194Z,9.40
2017-10-09T12:57:38.849Z,3.87
2017-10-09T13:00:06.515Z,4.33
2017-10-09T13:02:34.116Z,3.00
2017-10-09T13:05:01.838Z,10.37
2017-10-09T13:07:29.444Z,4.97
2017-10-09T13:09:57.104Z,4.77
2017-10-09T13:12:24.771Z,7.10
2017-10-09T13:14:52.440Z,7.10
2017-10-09T13:17:20.221Z,8.60
2017-10-09T13:19:47.935Z,2.40
2017-10-09T13:22:15.600Z,5.83
2017-10-09T13:24:43.209Z,11.60
2017-10-09T13:27:10.871Z,9.10
2017-10-09T13:29:38.480Z,2.10
2017-10-09T13:32:06.079Z,6.73
2017-10-09T13:34:33.728Z,6.50
2017-10-09T13:37:01.332Z,7.90
2017-10-09T13:39:28.938Z,5.70
2017-10-09T13:41:56.661Z,25.10
2017-10-09T13:44:24.320Z,8.77
2017-10-09T13:46:51.990Z,23.00
2017-10-09T13:49:19.667Z,22.33
2017-10-09T13:51:47.285Z,18.97
2017-10-09T13:54:14.951Z,15.17
2017-10-09T13:56:42.656Z,32.17
2017-10-09T13:59:10.326Z,15.40
2017-10-09T14:01:37.935Z,12.50
2017-10-09T14:04:05.615Z,30.30
2017-10-09T14:06:33.223Z,16.43
2017-10-09T14:09:00.941Z,12.80
2017-10-09T14:11:28.615Z,46.40
2017-10-09T14:13:56.232Z,44.67
2017-10-09T14:16:23.902Z,28.20
2017-10-09T14:18:51.632Z,31.23
2017-10-09T14:21:19.251Z,39.30
2017-10-09T14:23:46.854Z,23.70
2017-10-09T14:26:14.505Z,17.77
2017-10-09T14:28:42.227Z,16.60
2017-10-09T14:31:09.914Z,17.13
2017-10-09T14:41:00.459Z,6.73
2017-10-09T14:43:28.051Z,9.77
2017-10-09T14:45:55.661Z,6.73
2017-10-09T14:48:23.323Z,9.20
2017-10-09T14:50:50.927Z,10.03
2017-10-09T14:53:18.528Z,10.57
2017-10-09T14:55:46.179Z,22.70
2017-10-09T14:58:13.775Z,27.07
2017-10-09T15:00:41.438Z,11.03
2017-10-09T15:03:09.191Z,8.50
2017-10-09T15:05:36.856Z,8.87
2017-10-09T15:08:04.468Z,10.73
2017-10-09T15:10:32.110Z,13.60
2017-10-09T15:12:59.726Z,17.27
2017-10-09T15:15:27.389Z,14.30
2017-10-09T15:17:55.053Z,18.07
2017-10-09T15:20:22.707Z,25.63
2017-10-09T15:22:50.388Z,9.47
2017-10-09T15:25:18.033Z,9.70
2017-10-09T15:27:45.707Z,12.37
2017-10-09T15:30:13.326Z,11.43
2017-10-09T15:32:41.064Z,22.50
2017-10-09T15:35:08.675Z,14.30
2017-10-09T15:37:36.284Z,12.70
2017-10-09T15:40:03.944Z,13.23
2017-10-09T15:42:31.663Z,29.10
2017-10-09T15:44:59.331Z,24.93
2017-10-09T15:47:27.053Z,15.47
2017-10-09T15:49:54.677Z,19.63
2017-10-09T15:52:22.290Z,17.10
2017-10-09T15:54:50.004Z,18.17
2017-10-09T15:57:17.601Z,23.80
2017-10-09T15:59:45.268Z,12.27
2017-10-09T16:02:12.922Z,13.93
2017-10-09T16:04:40.523Z,11.43
2017-10-09T16:07:08.183Z,11.73
2017-10-09T16:09:35.896Z,35.77
2017-10-09T16:12:03.576Z,13.33
2017-10-09T16:14:31.231Z,10.73
2017-10-09T16:16:58.883Z,22.53
2017-10-09T16:19:26.499Z,12.87
2017-10-09T16:21:54.182Z,29.43
2017-10-09T16:24:21.904Z,13.87
2017-10-09T16:26:49.507Z,15.87
2017-10-09T16:29:17.122Z,22.97
2017-10-09T16:31:44.847Z,25.03
2017-10-09T16:34:12.463Z,28.97
2017-10-09T16:36:40.083Z,34.47
2017-10-09T16:39:07.815Z,38.73
2017-10-09T16:41:35.453Z,17.80
2017-10-09T16:44:03.106Z,33.27
2017-10-09T16:46:30.776Z,23.10
2017-10-09T16:48:58.388Z,87.80
2017-10-09T16:51:26.062Z,89.77
2017-10-09T16:53:53.811Z,78.07
2017-10-09T16:56:21.483Z,67.73
2017-10-09T16:58:49.101Z,65.70
2017-10-09T17:01:16.760Z,72.47
2017-10-09T17:03:44.383Z,69.60
2017-10-09T17:06:11.992Z,90.23
2017-10-09T17:08:39.651Z,58.40
2017-10-09T17:11:07.264Z,29.53
2017-10-09T17:13:35.005Z,24.30
2017-10-09T17:16:02.730Z,18.57
2017-10-09T17:18:30.348Z,21.40
2017-10-09T17:20:57.959Z,28.13
2017-10-09T17:23:25.689Z,38.03
2017-10-09T17:25:53.376Z,71.53
2017-10-09T17:28:21.055Z,64.37
2017-10-09T17:30:48.726Z,55.37
2017-10-09T17:33:16.344Z,44.30
2017-10-09T17:35:43.968Z,34.07
2017-10-09T17:38:11.748Z,23.60
2017-10-09T17:40:39.509Z,20.17
2017-10-09T17:43:07.131Z,21.03
2017-10-09T17:45:34.818Z,25.13
2017-10-09T17:48:02.433Z,23.50
2017-10-09T17:50:30.100Z,22.77
2017-10-09T17:52:57.827Z,27.40
2017-10-09T17:55:25.442Z,34.40
2017-10-09T17:57:53.048Z,25.03
2017-10-09T18:00:20.711Z,45.60
2017-10-09T18:02:48.324Z,55.83
2017-10-09T18:05:16.037Z,42.27
2017-10-09T18:07:43.764Z,27.37
2017-10-09T18:10:11.388Z,23.90
2017-10-09T18:12:38.988Z,19.27
2017-10-09T18:15:06.636Z,13.70
2017-10-09T18:17:34.267Z,11.10
2017-10-09T18:20:01.880Z,14.97
2017-10-09T18:22:29.536Z,10.60
2017-10-09T18:24:57.208Z,10.47
2017-10-09T18:27:24.871Z,13.30
2017-10-09T18:29:52.535Z,10.50
2017-10-09T18:32:20.207Z,14.27
2017-10-09T18:34:47.875Z,15.63
2017-10-09T18:37:15.529Z,9.27
2017-10-09T18:39:43.123Z,7.37
2017-10-09T18:42:10.793Z,20.13
2017-10-09T18:44:38.499Z,15.87
2017-10-09T18:47:06.184Z,12.57
2017-10-09T18:49:33.791Z,9.70
2017-10-09T18:52:01.464Z,20.70
2017-10-09T18:54:29.065Z,8.83
2017-10-09T18:56:56.729Z,7.23
2017-10-09T18:59:24.400Z,10.63
2017-10-09T19:01:52.120Z,3.20
2017-10-09T19:04:19.779Z,5.27
2017-10-09T19:06:47.479Z,4.07
2017-10-09T19:09:15.160Z,13.73
2017-10-09T19:11:42.824Z,12.27
2017-10-09T19:14:10.568Z,5.00
2017-10-09T19:16:38.182Z,3.80
2017-10-09T19:19:05.792Z,9.00
2017-10-09T19:21:33.487Z,3.70
2017-10-09T19:24:01.159Z,4.33
2017-10-09T19:26:28.774Z,7.87
2017-10-09T19:28:56.520Z,5.67
2017-10-09T19:31:24.172Z,6.20
2017-10-09T19:33:51.835Z,7.83
2017-10-09T19:36:19.549Z,5.60
2017-10-09T19:38:47.163Z,5.10
2017-10-09T19:41:14.776Z,4.87
2017-10-09T19:43:42.485Z,5.20
2017-10-09T19:46:10.084Z,10.50
2017-10-09T19:48:37.759Z,11.10
2017-10-09T19:51:05.476Z,8.70
2017-10-09T19:53:33.188Z,7.77
2017-10-09T19:56:00.795Z,7.47
2017-10-09T19:58:28.507Z,11.43
2017-10-09T20:00:56.302Z,7.03
2017-10-09T20:03:24.026Z,11.93
2017-10-09T20:05:51.737Z,8.70
2017-10-09T20:08:19.356Z,9.97
2017-10-09T20:10:46.965Z,11.80
2017-10-09T20:13:14.604Z,9.10
2017-10-09T20:15:42.207Z,8.60
2017-10-09T20:18:09.811Z,10.60
2017-10-09T20:20:37.482Z,10.10
2017-10-09T20:23:05.088Z,9.93
2017-10-09T20:25:32.765Z,9.47
2017-10-09T20:28:00.433Z,10.63
2017-10-09T20:30:28.037Z,7.20
2017-10-09T20:32:55.639Z,11.30
2017-10-09T20:35:23.299Z,6.33
2017-10-09T20:37:50.905Z,8.40
2017-10-09T20:40:18.575Z,5.90
2017-10-09T20:42:46.296Z,9.53
2017-10-09T20:45:13.913Z,4.73
2017-10-09T20:47:41.516Z,9.93
2017-10-09T20:50:09.159Z,9.03
2017-10-09T20:52:36.760Z,6.47
2017-10-09T20:55:04.472Z,9.93
2017-10-09T20:57:32.210Z,10.77
2017-10-09T20:59:59.879Z,8.57
2017-10-09T21:02:27.483Z,6.10
2017-10-09T21:04:55.188Z,10.03
2017-10-09T21:07:22.787Z,5.70
2017-10-09T21:09:50.399Z,5.03
2017-10-09T21:12:18.127Z,5.43
2017-10-09T21:14:45.729Z,3.60
2017-10-09T21:17:13.335Z,7.00
2017-10-09T21:19:40.992Z,4.80
2017-10-09T21:22:08.612Z,6.83
2017-10-09T21:24:36.286Z,6.87
2017-10-09T21:27:03.937Z,6.60
2017-10-09T21:29:31.554Z,4.77
2017-10-09T21:31:59.227Z,3.67
2017-10-09T21:34:26.963Z,8.23
2017-10-09T21:36:54.627Z,3.33
2017-10-09T21:39:22.344Z,6.43
2017-10-09T21:41:50.090Z,3.73
2017-10-09T21:44:17.751Z,4.37
2017-10-09T21:46:45.339Z,2.20
2017-10-09T21:49:13.066Z,2.80
2017-10-09T21:51:40.739Z,4.67
2017-10-09T21:54:08.335Z,3.07
2017-10-09T21:56:36.001Z,3.60
2017-10-09T21:59:03.600Z,5.37
2017-10-09T22:01:31.206Z,5.33
2017-10-09T22:03:58.934Z,2.70
2017-10-09T22:06:26.555Z,4.80
2017-10-09T22:08:54.178Z,4.30
2017-10-09T22:11:21.846Z,2.50
2017-10-09T22:13:49.446Z,3.40
2017-10-09T22:16:17.120Z,12.10
2017-10-09T22:18:44.777Z,6.93
2017-10-09T22:21:12.468Z,5.00
2017-10-09T22:23:40.079Z,5.03
2017-10-09T22:26:07.783Z,7.20
2017-10-09T22:28:35.384Z,7.73
2017-10-09T22:31:03.042Z,5.80
2017-10-09T22:33:30.752Z,5.63
2017-10-09T22:35:58.364Z,5.87
2017-10-09T22:38:25.968Z,3.97
2017-10-09T22:40:53.688Z,10.90
2017-10-09T22:43:21.296Z,9.67
2017-10-09T22:45:48.920Z,7.10
2017-10-09T22:48:16.563Z,4.10
2017-10-09T22:50:44.221Z,5.63
2017-10-09T22:53:11.828Z,3.30
2017-10-09T22:55:39.583Z,3.90
2017-10-09T22:58:07.189Z,3.93
2017-10-09T23:00:34.798Z,3.63
2017-10-09T23:03:02.461Z,4.10
2017-10-09T23:05:30.128Z,3.23
2017-10-09T23:07:57.732Z,3.80
2017-10-09T23:10:25.377Z,2.30
2017-10-09T23:12:52.984Z,4.00
2017-10-09T23:15:20.588Z,2.40
2017-10-09T23:17:48.316Z,3.17
2017-10-09T23:20:15.914Z,5.20
2017-10-09T23:22:43.515Z,6.43
2017-10-09T23:25:11.162Z,4.87
2017-10-09T23:27:38.820Z,5.77
2017-10-09T23:30:06.486Z,5.40
2017-10-09T23:32:34.151Z,4.00
2017-10-09T23:35:01.760Z,2.50
2017-10-09T23:37:29.375Z,3.50
2017-10-09T23:39:57.099Z,4.00
2017-10-09T23:42:24.716Z,3.80
2017-10-09T23:44:52.317Z,3.07
2017-10-09T23:47:19.964Z,5.50
2017-10-09T23:49:47.577Z,2.30
2017-10-09T23:52:15.245Z,5.87
2017-10-09T23:54:42.962Z,2.00
2017-10-09T23:57:10.624Z,3.03
2017-10-09T23:59:38.223Z,5.50
